createdAt,value
2018-08-06T00:00:49.668Z,3.5
2018-08-06T00:02:49.800Z,3.6
2018-08-06T00:04:50.202Z,3.5
2018-08-06T00:06:50.440Z,3.4
2018-08-06T00:08:50.418Z,3.4
2018-08-06T00:10:50.479Z,3.3
2018-08-06T00:12:50.366Z,3.5
2018-08-06T00:14:50.429Z,3.6
2018-08-06T00:16:49.808Z,3.7
2018-08-06T00:18:49.818Z,3.7
2018-08-06T00:20:49.925Z,3.9
2018-08-06T00:22:50.015Z,3.6
2018-08-06T00:24:50.215Z,3.6
2018-08-06T00:26:50.469Z,3.5
2018-08-06T00:28:50.414Z,3.5
2018-08-06T00:30:50.506Z,4.0
2018-08-06T00:32:49.690Z,3.7
2018-08-06T00:34:50.123Z,3.7
2018-08-06T00:36:50.347Z,3.8
2018-08-06T00:38:50.384Z,3.8
2018-08-06T00:40:50.386Z,3.8
2018-08-06T00:42:50.504Z,3.7
2018-08-06T00:44:50.423Z,3.7
2018-08-06T00:46:49.716Z,3.7
2018-08-06T00:48:49.938Z,3.8
2018-08-06T00:50:50.044Z,3.7
2018-08-06T00:52:50.024Z,3.7
2018-08-06T00:54:50.242Z,3.8
2018-08-06T00:56:49.554Z,3.8
2018-08-06T00:58:49.705Z,3.7
2018-08-06T01:00:49.747Z,3.7
2018-08-06T01:02:49.853Z,4.0
2018-08-06T01:04:50.467Z,3.7
2018-08-06T01:06:49.651Z,3.7
2018-08-06T01:08:49.640Z,3.8
2018-08-06T01:10:49.677Z,3.9
2018-08-06T01:12:49.843Z,4.0
2018-08-06T01:14:49.832Z,4.0
2018-08-06T01:16:50.008Z,4.0
2018-08-06T01:18:50.126Z,3.9
2018-08-06T01:20:50.292Z,4.1
2018-08-06T01:22:50.406Z,4.0
2018-08-06T01:24:50.404Z,3.9
2018-08-06T01:26:49.761Z,3.9
2018-08-06T01:28:49.934Z,4.3
2018-08-06T01:30:49.917Z,4.2
2018-08-06T01:32:50.042Z,4.1
2018-08-06T01:34:50.470Z,4.1
2018-08-06T01:36:49.768Z,4.3
2018-08-06T01:38:49.807Z,4.3
2018-08-06T01:40:49.798Z,4.2
2018-08-06T01:42:49.766Z,4.3
2018-08-06T01:44:49.902Z,4.3
2018-08-06T01:46:50.214Z,4.3
2018-08-06T01:48:50.171Z,4.1
2018-08-06T01:50:50.234Z,4.4
2018-08-06T01:52:50.366Z,4.5
2018-08-06T01:54:50.395Z,4.5
2018-08-06T01:56:49.553Z,4.3
2018-08-06T01:58:49.737Z,4.5
2018-08-06T02:00:49.855Z,4.9
2018-08-06T02:02:49.938Z,4.9
2018-08-06T02:04:50.297Z,4.4
2018-08-06T02:06:49.608Z,4.8
2018-08-06T02:08:50.489Z,4.7
2018-08-06T02:10:50.479Z,4.7
2018-08-06T02:12:50.397Z,4.7
2018-08-06T02:14:50.423Z,4.8
2018-08-06T02:16:49.838Z,4.7
2018-08-06T02:18:49.839Z,4.7
2018-08-06T02:20:49.772Z,4.8
2018-08-06T02:22:49.845Z,4.8
2018-08-06T02:24:50.080Z,4.7
2018-08-06T02:26:50.388Z,5.0
2018-08-06T02:28:50.328Z,5.0
2018-08-06T02:30:50.297Z,4.7
2018-08-06T02:32:50.386Z,4.7
2018-08-06T02:34:49.915Z,5.0
2018-08-06T02:36:50.156Z,5.0
2018-08-06T02:38:50.170Z,5.0
2018-08-06T02:40:50.251Z,4.9
2018-08-06T02:42:50.427Z,4.9
2018-08-06T02:44:50.403Z,4.8
2018-08-06T02:46:49.618Z,5.4
2018-08-06T02:48:49.827Z,5.3
2018-08-06T02:50:49.846Z,5.0
2018-08-06T02:52:49.845Z,5.0
2018-08-06T02:54:49.898Z,5.2
2018-08-06T02:56:50.242Z,5.6
2018-08-06T02:58:50.319Z,5.4
2018-08-06T03:00:50.397Z,5.4
2018-08-06T03:02:50.469Z,5.3
2018-08-06T03:04:50.130Z,5.2
2018-08-06T03:06:50.364Z,5.6
2018-08-06T03:08:50.367Z,5.3
2018-08-06T03:10:50.484Z,5.3
2018-08-06T03:12:49.663Z,5.3
2018-08-06T03:14:49.766Z,5.5
2018-08-06T03:16:50.056Z,5.2
2018-08-06T03:18:50.251Z,5.2
2018-08-06T03:20:50.359Z,5.3
2018-08-06T03:22:49.634Z,5.3
2018-08-06T03:24:49.612Z,5.4
2018-08-06T03:26:49.854Z,5.8
2018-08-06T03:28:49.966Z,5.7
2018-08-06T03:30:49.933Z,5.7
2018-08-06T03:32:50.044Z,5.6
2018-08-06T03:34:49.562Z,6.0
2018-08-06T03:36:49.917Z,5.5
2018-08-06T03:38:50.052Z,5.5
2018-08-06T03:40:50.047Z,5.6
2018-08-06T03:42:50.134Z,5.6
2018-08-06T03:44:50.244Z,6.0
2018-08-06T03:46:50.455Z,6.0
2018-08-06T03:48:50.515Z,6.2
2018-08-06T03:50:49.569Z,6.2
2018-08-06T03:52:49.930Z,5.9
2018-08-06T03:54:50.252Z,6.1
2018-08-06T03:56:49.566Z,6.0
2018-08-06T03:58:49.591Z,5.7
2018-08-06T04:00:49.733Z,5.7
2018-08-06T04:02:49.784Z,5.9
2018-08-06T04:04:50.164Z,5.5
2018-08-06T04:06:49.556Z,5.8
2018-08-06T04:08:49.645Z,5.6
2018-08-06T04:10:49.712Z,5.6
2018-08-06T04:12:49.729Z,5.9
2018-08-06T04:14:49.805Z,5.4
2018-08-06T04:16:50.108Z,5.5
2018-08-06T04:18:50.116Z,5.7
2018-08-06T04:20:50.057Z,5.7
2018-08-06T04:22:50.043Z,6.0
2018-08-06T04:24:50.156Z,5.9
2018-08-06T04:26:50.028Z,5.7
2018-08-06T04:28:50.005Z,5.7
2018-08-06T04:30:50.057Z,5.7
2018-08-06T04:32:50.368Z,6.2
2018-08-06T04:34:50.126Z,5.9
2018-08-06T04:36:50.329Z,5.9
2018-08-06T04:38:50.403Z,6.1
2018-08-06T04:40:50.482Z,6.1
2018-08-06T04:42:50.501Z,5.8
2018-08-06T04:44:50.552Z,6.1
2018-08-06T04:46:49.898Z,5.7
2018-08-06T04:48:49.923Z,5.7
2018-08-06T04:50:49.926Z,5.9
2018-08-06T04:52:49.961Z,6.1
2018-08-06T04:54:50.007Z,5.9
2018-08-06T04:56:50.247Z,5.9
2018-08-06T04:58:50.205Z,6.0
2018-08-06T05:00:50.219Z,5.8
2018-08-06T05:02:50.332Z,6.1
2018-08-06T05:04:50.048Z,5.7
2018-08-06T05:06:50.448Z,5.7
2018-08-06T05:08:49.545Z,5.9
2018-08-06T05:10:49.529Z,6.1
2018-08-06T05:12:49.733Z,6.1
2018-08-06T05:14:49.680Z,5.5
2018-08-06T05:16:49.882Z,5.5
2018-08-06T05:18:50.011Z,5.5
2018-08-06T05:20:50.154Z,5.4
2018-08-06T05:22:50.182Z,5.2
2018-08-06T05:24:50.340Z,5.4
2018-08-06T05:26:50.021Z,5.4
2018-08-06T05:28:50.056Z,5.4
2018-08-06T05:30:50.071Z,5.2
2018-08-06T05:32:50.082Z,5.2
2018-08-06T05:34:49.564Z,5.0
2018-08-06T05:36:49.622Z,4.8
2018-08-06T05:38:49.626Z,4.6
2018-08-06T05:40:49.670Z,5.1
2018-08-06T05:42:49.739Z,5.0
2018-08-06T05:44:49.812Z,5.1
2018-08-06T05:46:50.049Z,5.1
2018-08-06T05:48:50.157Z,4.6
2018-08-06T05:50:49.640Z,4.9
2018-08-06T05:52:49.673Z,4.4
2018-08-06T05:54:49.628Z,4.4
2018-08-06T05:56:49.930Z,4.0
2018-08-06T05:58:50.019Z,4.1
2018-08-06T06:00:50.310Z,4.3
2018-08-06T06:02:50.256Z,3.7
2018-08-06T06:04:49.644Z,3.7
2018-08-06T06:06:50.033Z,4.4
2018-08-06T06:08:50.062Z,4.2
2018-08-06T06:10:50.267Z,4.1
2018-08-06T06:12:50.300Z,4.2
2018-08-06T06:14:50.355Z,4.2
2018-08-06T06:16:49.579Z,4.2
2018-08-06T06:18:49.556Z,3.7
2018-08-06T06:20:49.600Z,4.2
2018-08-06T06:22:49.658Z,4.2
2018-08-06T06:24:49.756Z,4.3
2018-08-06T06:26:50.012Z,4.0
2018-08-06T06:28:50.076Z,4.0
2018-08-06T06:30:50.116Z,3.9
2018-08-06T06:32:50.193Z,3.9
2018-08-06T06:34:49.864Z,3.6
2018-08-06T06:36:50.463Z,3.9
2018-08-06T06:38:50.503Z,3.7
2018-08-06T06:40:49.572Z,3.5
2018-08-06T06:42:49.580Z,3.5
2018-08-06T06:44:49.561Z,3.5
2018-08-06T06:46:49.785Z,3.5
2018-08-06T06:48:50.131Z,3.5
2018-08-06T06:50:50.480Z,3.5
2018-08-06T06:52:50.497Z,3.6
2018-08-06T06:54:49.750Z,4.3
2018-08-06T06:56:50.007Z,3.5
2018-08-06T06:58:50.096Z,3.6
2018-08-06T07:00:50.371Z,3.6
2018-08-06T07:02:50.430Z,3.7
2018-08-06T07:04:50.035Z,3.6
2018-08-06T07:06:50.261Z,3.4
2018-08-06T07:08:50.302Z,3.5
2018-08-06T07:10:50.359Z,3.5
2018-08-06T07:12:50.587Z,3.1
2018-08-06T07:14:49.849Z,4.6
2018-08-06T07:16:50.075Z,3.0
2018-08-06T07:18:50.109Z,3.2
2018-08-06T07:20:50.215Z,3.2
2018-08-06T07:22:50.309Z,3.5
2018-08-06T07:24:50.351Z,3.3
2018-08-06T07:26:50.479Z,3.1
2018-08-06T07:28:50.473Z,3.1
2018-08-06T07:30:49.590Z,3.1
2018-08-06T07:32:49.611Z,3.2
2018-08-06T07:34:50.179Z,3.1
2018-08-06T07:36:50.398Z,3.0
2018-08-06T07:38:50.409Z,3.3
2018-08-06T07:40:50.418Z,3.3
2018-08-06T07:42:49.571Z,3.2
2018-08-06T07:44:49.573Z,3.7
2018-08-06T07:46:49.754Z,3.7
2018-08-06T07:48:49.819Z,3.3
2018-08-06T07:50:49.881Z,3.3
2018-08-06T07:52:49.827Z,2.8
2018-08-06T07:54:49.945Z,3.1
2018-08-06T07:56:50.177Z,2.6
2018-08-06T07:58:50.243Z,3.0
2018-08-06T08:00:50.225Z,3.0
2018-08-06T08:02:50.244Z,2.9
2018-08-06T08:04:49.723Z,2.9
2018-08-06T08:06:50.053Z,2.8
2018-08-06T08:08:50.088Z,2.8
2018-08-06T08:10:50.128Z,2.9
2018-08-06T08:12:50.262Z,3.0
2018-08-06T08:14:50.318Z,2.9
2018-08-06T08:16:50.515Z,2.7
2018-08-06T08:18:50.450Z,2.7
2018-08-06T08:20:50.483Z,3.0
2018-08-06T08:22:49.565Z,2.9
2018-08-06T08:24:49.702Z,2.8
2018-08-06T08:26:49.854Z,2.9
2018-08-06T08:28:49.905Z,2.9
2018-08-06T08:30:50.005Z,2.6
2018-08-06T08:32:50.034Z,2.6
2018-08-06T08:34:50.438Z,2.7
2018-08-06T08:36:49.804Z,2.8
2018-08-06T08:38:49.862Z,2.8
2018-08-06T08:40:49.952Z,2.7
2018-08-06T08:42:49.908Z,2.6
2018-08-06T08:44:49.911Z,2.3
2018-08-06T08:46:50.356Z,2.3
2018-08-06T08:48:50.476Z,2.5
2018-08-06T08:50:50.448Z,2.9
2018-08-06T08:52:50.454Z,2.7
2018-08-06T08:54:49.524Z,2.6
2018-08-06T08:56:49.835Z,2.6
2018-08-06T08:58:50.111Z,2.6
2018-08-06T09:00:50.051Z,2.7
2018-08-06T09:02:50.151Z,2.8
2018-08-06T09:04:49.741Z,2.9
2018-08-06T09:06:49.933Z,2.9
2018-08-06T09:08:49.901Z,2.4
2018-08-06T09:10:50.049Z,2.6
2018-08-06T09:12:50.180Z,2.6
2018-08-06T09:14:50.268Z,2.5
2018-08-06T09:16:50.553Z,2.5
2018-08-06T09:18:49.669Z,2.3
2018-08-06T09:20:49.736Z,2.5
2018-08-06T09:22:49.840Z,2.5
2018-08-06T09:24:49.806Z,2.7
2018-08-06T09:26:50.344Z,2.7
2018-08-06T09:28:49.713Z,2.4
2018-08-06T09:30:49.712Z,2.6
2018-08-06T09:32:49.738Z,2.6
2018-08-06T09:34:50.075Z,2.3
2018-08-06T09:36:50.342Z,2.3
2018-08-06T09:38:50.323Z,2.7
2018-08-06T09:40:50.420Z,2.3
2018-08-06T09:42:50.486Z,2.6
2018-08-06T09:44:50.521Z,2.7
2018-08-06T09:46:49.679Z,2.7
2018-08-06T09:48:49.654Z,2.7
2018-08-06T09:50:49.886Z,2.7
2018-08-06T09:52:50.025Z,2.8
2018-08-06T09:54:50.229Z,2.8
2018-08-06T09:56:49.557Z,2.5
2018-08-06T09:58:49.774Z,2.4
2018-08-06T10:00:49.789Z,2.6
2018-08-06T10:02:49.778Z,2.6
2018-08-06T10:04:50.271Z,2.6
2018-08-06T10:06:49.777Z,2.5
2018-08-06T10:08:50.154Z,2.5
2018-08-06T10:10:50.200Z,2.4
2018-08-06T10:12:50.234Z,2.4
2018-08-06T10:14:50.330Z,2.5
2018-08-06T10:16:49.552Z,2.3
2018-08-06T10:18:49.652Z,2.4
2018-08-06T10:20:50.213Z,2.4
2018-08-06T10:22:50.216Z,2.4
2018-08-06T10:24:50.301Z,2.3
2018-08-06T10:26:49.518Z,2.3
2018-08-06T10:28:49.629Z,2.3
2018-08-06T10:30:49.801Z,2.2
2018-08-06T10:32:49.903Z,2.2
2018-08-06T10:34:50.353Z,2.5
2018-08-06T10:36:49.695Z,2.2
2018-08-06T10:38:49.921Z,2.4
2018-08-06T10:40:49.913Z,2.2
2018-08-06T10:42:49.864Z,2.2
2018-08-06T10:44:49.894Z,2.1
2018-08-06T10:46:50.144Z,2.2
2018-08-06T10:48:50.178Z,2.1
2018-08-06T10:50:50.127Z,2.3
2018-08-06T10:52:50.153Z,2.3
2018-08-06T10:54:50.242Z,2.3
2018-08-06T10:56:50.442Z,2.3
2018-08-06T10:58:50.472Z,2.2
2018-08-06T11:00:49.594Z,2.4
2018-08-06T11:02:49.719Z,2.4
2018-08-06T11:04:50.372Z,2.1
2018-08-06T11:06:49.549Z,2.4
2018-08-06T11:08:49.836Z,2.4
2018-08-06T11:10:50.246Z,2.4
2018-08-06T11:12:50.191Z,2.3
2018-08-06T11:14:50.238Z,2.4
2018-08-06T11:16:50.522Z,2.4
2018-08-06T11:18:50.514Z,2.2
2018-08-06T11:20:49.603Z,1.9
2018-08-06T11:22:49.704Z,1.9
2018-08-06T11:24:49.862Z,2.2
2018-08-06T11:26:50.177Z,2.1
2018-08-06T11:28:50.132Z,2.3
2018-08-06T11:30:50.198Z,2.3
2018-08-06T11:32:50.294Z,2.2
2018-08-06T11:34:49.675Z,1.9
2018-08-06T11:36:50.114Z,2.0
2018-08-06T11:38:49.540Z,2.1
2018-08-06T11:40:49.691Z,2.1
2018-08-06T11:42:49.643Z,2.1
2018-08-06T11:44:49.679Z,2.1
2018-08-06T11:46:50.344Z,1.9
2018-08-06T11:48:50.511Z,2.1
2018-08-06T11:50:49.874Z,2.1
2018-08-06T11:52:49.943Z,2.1
2018-08-06T11:54:50.072Z,2.1
2018-08-06T11:56:50.813Z,1.8
2018-08-06T11:58:49.627Z,2.1
2018-08-06T12:00:49.665Z,2.1
2018-08-06T12:02:49.860Z,2.2
2018-08-06T12:04:50.268Z,2.1
2018-08-06T12:06:49.559Z,2.1
2018-08-06T12:08:49.547Z,2.1
2018-08-06T12:10:49.592Z,2.0
2018-08-06T12:12:49.731Z,2.8
2018-08-06T12:14:49.694Z,2.1
2018-08-06T12:16:49.963Z,2.1
2018-08-06T12:18:49.971Z,1.9
2018-08-06T12:20:50.149Z,1.9
2018-08-06T12:22:50.315Z,2.1
2018-08-06T12:24:50.404Z,2.1
2018-08-06T12:26:49.674Z,2.1
2018-08-06T12:28:49.935Z,2.1
2018-08-06T12:30:49.917Z,2.1
2018-08-06T12:32:50.014Z,2.1
2018-08-06T12:34:50.017Z,1.9
2018-08-06T12:36:50.321Z,2.1
2018-08-06T12:38:50.337Z,1.9
2018-08-06T12:40:49.541Z,1.9
2018-08-06T12:42:49.779Z,2.2
2018-08-06T12:44:49.766Z,2.2
2018-08-06T12:46:50.162Z,2.3
2018-08-06T12:48:50.154Z,2.3
2018-08-06T12:50:50.235Z,2.2
2018-08-06T12:52:49.617Z,2.3
2018-08-06T12:54:49.667Z,2.1
2018-08-06T12:56:49.890Z,2.1
2018-08-06T12:58:49.914Z,2.2
2018-08-06T13:00:50.044Z,2.3
2018-08-06T13:02:50.219Z,2.2
2018-08-06T13:04:49.864Z,2.6
2018-08-06T13:06:50.164Z,2.6
2018-08-06T13:08:50.220Z,2.2
2018-08-06T13:10:50.328Z,2.3
2018-08-06T13:12:50.411Z,2.0
2018-08-06T13:14:50.349Z,2.1
2018-08-06T13:16:49.574Z,2.2
2018-08-06T13:18:49.617Z,2.2
2018-08-06T13:20:49.787Z,2.0
2018-08-06T13:22:49.869Z,2.0
2018-08-06T13:24:49.992Z,2.3
2018-08-06T13:26:50.274Z,2.3
2018-08-06T13:28:50.352Z,2.1
2018-08-06T13:30:50.368Z,2.1
2018-08-06T13:32:50.398Z,2.0
2018-08-06T13:34:49.852Z,2.1
2018-08-06T13:36:50.427Z,2.1
2018-08-06T13:38:49.721Z,2.1
2018-08-06T13:40:49.672Z,2.2
2018-08-06T13:42:49.677Z,2.0
2018-08-06T13:44:49.756Z,2.0
2018-08-06T13:46:50.197Z,2.3
2018-08-06T13:48:49.788Z,2.0
2018-08-06T13:50:49.962Z,2.1
2018-08-06T13:52:50.126Z,2.1
2018-08-06T13:54:50.264Z,2.3
2018-08-06T13:56:50.496Z,2.3
2018-08-06T13:58:49.566Z,2.1
2018-08-06T14:00:49.683Z,2.2
2018-08-06T14:02:49.899Z,2.1
2018-08-06T14:04:50.373Z,2.1
2018-08-06T14:06:49.740Z,2.1
2018-08-06T14:08:49.700Z,2.2
2018-08-06T14:10:49.826Z,1.9
2018-08-06T14:12:49.890Z,2.2
2018-08-06T14:14:49.964Z,2.1
2018-08-06T14:16:50.378Z,2.1
2018-08-06T14:18:49.866Z,2.0
2018-08-06T14:20:50.274Z,2.0
2018-08-06T14:22:50.326Z,2.2
2018-08-06T14:24:50.231Z,2.2
2018-08-06T14:26:49.582Z,2.2
2018-08-06T14:28:49.892Z,2.3
2018-08-06T14:30:49.957Z,2.3
2018-08-06T14:32:50.106Z,2.3
2018-08-06T14:34:50.497Z,2.3
2018-08-06T14:36:49.763Z,2.2
2018-08-06T14:38:49.821Z,2.3
2018-08-06T14:40:49.832Z,2.2
2018-08-06T14:42:49.901Z,2.2
2018-08-06T14:44:50.038Z,2.3
2018-08-06T14:46:50.295Z,2.4
2018-08-06T14:48:50.273Z,2.2
2018-08-06T14:50:50.285Z,2.1
2018-08-06T14:52:50.402Z,2.1
2018-08-06T14:54:49.555Z,2.2
2018-08-06T14:56:49.823Z,2.2
2018-08-06T14:58:49.871Z,2.3
2018-08-06T15:00:49.943Z,2.3
2018-08-06T15:02:50.022Z,2.1
2018-08-06T15:04:49.737Z,2.3
2018-08-06T15:06:49.923Z,2.0
2018-08-06T15:08:50.013Z,2.3
2018-08-06T15:10:50.164Z,2.2
2018-08-06T15:12:50.309Z,2.2
2018-08-06T15:14:50.293Z,2.1
2018-08-06T15:16:49.620Z,2.1
2018-08-06T15:18:49.967Z,2.3
2018-08-06T15:20:50.017Z,2.2
2018-08-06T15:22:50.137Z,2.2
2018-08-06T15:24:50.362Z,2.1
2018-08-06T15:26:49.656Z,2.1
2018-08-06T15:28:49.692Z,2.3
2018-08-06T15:30:49.653Z,2.2
2018-08-06T15:32:49.679Z,2.2
2018-08-06T15:34:50.351Z,2.1
2018-08-06T15:36:49.733Z,2.4
2018-08-06T15:38:49.703Z,2.3
2018-08-06T15:40:49.766Z,2.3
2018-08-06T15:42:49.872Z,2.1
2018-08-06T15:44:50.025Z,2.5
2018-08-06T15:46:50.361Z,2.2
2018-08-06T15:48:50.360Z,2.2
2018-08-06T15:50:50.481Z,2.2
2018-08-06T15:52:49.681Z,2.1
2018-08-06T15:54:49.730Z,2.0
2018-08-06T15:56:49.959Z,1.9
2018-08-06T15:58:50.039Z,2.2
2018-08-06T16:00:50.229Z,2.2
2018-08-06T16:02:50.287Z,2.2
2018-08-06T16:04:49.812Z,2.4
2018-08-06T16:06:50.074Z,2.0
2018-08-06T16:08:50.214Z,2.0
2018-08-06T16:10:50.171Z,2.0
2018-08-06T16:12:50.227Z,2.0
2018-08-06T16:14:50.383Z,2.2
2018-08-06T16:16:49.755Z,2.0
2018-08-06T16:18:49.764Z,2.1
2018-08-06T16:20:49.788Z,2.1
2018-08-06T16:22:49.800Z,2.1
2018-08-06T16:24:49.913Z,1.9
2018-08-06T16:26:49.564Z,1.9
2018-08-06T16:28:49.550Z,1.8
2018-08-06T16:30:49.577Z,1.8
2018-08-06T16:32:49.690Z,2.0
2018-08-06T16:34:50.173Z,1.9
2018-08-06T16:36:50.382Z,2.0
2018-08-06T16:38:50.485Z,1.8
2018-08-06T16:40:49.651Z,1.8
2018-08-06T16:42:49.877Z,2.0
2018-08-06T16:44:49.944Z,2.0
2018-08-06T16:46:50.463Z,1.9
2018-08-06T16:48:49.896Z,1.9
2018-08-06T16:50:50.075Z,2.0
2018-08-06T16:52:50.601Z,1.8
2018-08-06T16:54:50.370Z,1.8
2018-08-06T16:56:49.665Z,2.0
2018-08-06T16:58:49.760Z,2.0
2018-08-06T17:00:49.893Z,2.1
2018-08-06T17:02:50.176Z,2.1
2018-08-06T17:04:49.612Z,2.0
2018-08-06T17:06:50.216Z,2.0
2018-08-06T17:08:49.828Z,2.1
2018-08-06T17:10:49.896Z,2.2
2018-08-06T17:12:49.973Z,2.1
2018-08-06T17:14:50.011Z,2.2
2018-08-06T17:16:50.394Z,2.2
2018-08-06T17:18:50.505Z,3.9
2018-08-06T17:20:49.750Z,2.3
2018-08-06T17:22:49.773Z,2.1
2018-08-06T17:24:49.944Z,2.1
2018-08-06T17:26:50.219Z,2.1
2018-08-06T17:28:50.245Z,2.1
2018-08-06T17:30:50.252Z,2.3
2018-08-06T17:32:50.428Z,2.2
2018-08-06T17:34:50.095Z,2.1
2018-08-06T17:36:50.459Z,2.1
2018-08-06T17:38:50.403Z,2.0
2018-08-06T17:40:50.437Z,2.2
2018-08-06T17:42:49.723Z,2.2
2018-08-06T17:44:50.181Z,2.0
2018-08-06T17:46:50.439Z,2.0
2018-08-06T17:48:50.525Z,2.0
2018-08-06T17:50:50.516Z,2.2
2018-08-06T17:52:49.707Z,2.2
2018-08-06T17:54:49.732Z,2.4
2018-08-06T17:56:50.040Z,2.4
2018-08-06T17:58:50.247Z,2.1
2018-08-06T18:00:50.279Z,2.2
2018-08-06T18:02:50.360Z,2.1
2018-08-06T18:04:50.252Z,2.2
2018-08-06T18:06:49.525Z,2.2
2018-08-06T18:08:49.821Z,2.3
2018-08-06T18:10:50.086Z,2.3
2018-08-06T18:12:50.179Z,2.1
2018-08-06T18:14:50.241Z,2.5
2018-08-06T18:16:50.480Z,2.5
2018-08-06T18:18:50.467Z,2.1
2018-08-06T18:20:50.460Z,2.6
2018-08-06T18:22:50.511Z,2.6
2018-08-06T18:24:49.663Z,2.5
2018-08-06T18:26:49.926Z,2.5
2018-08-06T18:28:49.983Z,2.5
2018-08-06T18:30:50.091Z,2.5
2018-08-06T18:32:50.198Z,2.3
2018-08-06T18:34:49.774Z,2.3
2018-08-06T18:36:50.058Z,2.3
2018-08-06T18:38:50.466Z,2.7
2018-08-06T18:40:49.615Z,2.5
2018-08-06T18:42:49.742Z,3.1
2018-08-06T18:44:49.823Z,3.1
2018-08-06T18:46:50.024Z,2.7
2018-08-06T18:48:50.197Z,2.6
2018-08-06T18:50:50.210Z,2.7
2018-08-06T18:52:50.338Z,2.8
2018-08-06T18:54:50.507Z,2.8
2018-08-06T18:56:49.847Z,2.3
2018-08-06T18:58:49.999Z,2.9
2018-08-06T19:00:50.002Z,2.9
2018-08-06T19:02:50.019Z,3.4
2018-08-06T19:04:50.471Z,3.1
2018-08-06T19:06:49.813Z,3.0
2018-08-06T19:08:49.869Z,3.0
2018-08-06T19:10:49.944Z,3.0
2018-08-06T19:12:50.160Z,4.8
2018-08-06T19:14:49.524Z,3.8
2018-08-06T19:16:49.847Z,3.6
2018-08-06T19:18:49.893Z,4.1
2018-08-06T19:20:49.910Z,4.1
2018-08-06T19:22:50.076Z,4.5
2018-08-06T19:24:50.209Z,4.4
2018-08-06T19:26:49.924Z,4.3
2018-08-06T19:28:49.946Z,4.6
2018-08-06T19:30:50.108Z,4.3
2018-08-06T19:32:50.118Z,4.3
2018-08-06T19:34:50.558Z,3.6
2018-08-06T19:36:49.975Z,3.3
2018-08-06T19:38:50.204Z,3.3
2018-08-06T19:40:50.306Z,3.4
2018-08-06T19:42:50.344Z,3.4
2018-08-06T19:44:49.767Z,3.2
2018-08-06T19:46:50.004Z,3.4
2018-08-06T19:48:50.053Z,3.8
2018-08-06T19:50:50.116Z,3.9
2018-08-06T19:52:50.053Z,3.9
2018-08-06T19:54:50.127Z,3.6
2018-08-06T19:56:50.380Z,3.6
2018-08-06T19:58:50.367Z,3.6
2018-08-06T20:00:50.507Z,3.6
2018-08-06T20:02:49.577Z,3.6
2018-08-06T20:04:50.128Z,3.5
2018-08-06T20:06:50.479Z,3.6
2018-08-06T20:08:49.547Z,4.0
2018-08-06T20:10:49.620Z,4.0
2018-08-06T20:12:49.689Z,3.8
2018-08-06T20:14:49.850Z,3.5
2018-08-06T20:16:50.172Z,3.4
2018-08-06T20:18:50.167Z,3.8
2018-08-06T20:20:50.260Z,3.8
2018-08-06T20:22:50.307Z,4.0
2018-08-06T20:24:50.277Z,3.4
2018-08-06T20:26:49.690Z,3.4
2018-08-06T20:28:49.740Z,4.1
2018-08-06T20:30:49.868Z,3.9
2018-08-06T20:32:49.925Z,3.5
2018-08-06T20:34:50.327Z,4.0
2018-08-06T20:36:50.508Z,3.8
2018-08-06T20:38:49.640Z,3.8
2018-08-06T20:40:49.644Z,4.0
2018-08-06T20:42:49.621Z,3.5
2018-08-06T20:44:49.729Z,3.4
2018-08-06T20:46:49.926Z,3.1
2018-08-06T20:48:49.932Z,3.1
2018-08-06T20:50:49.955Z,3.4
2018-08-06T20:52:50.002Z,3.4
2018-08-06T20:54:49.960Z,3.4
2018-08-06T20:56:50.287Z,3.4
2018-08-06T20:58:49.579Z,3.5
2018-08-06T21:00:49.725Z,3.5
2018-08-06T21:02:49.839Z,3.6
2018-08-06T21:04:50.399Z,3.8
2018-08-06T21:06:49.616Z,3.8
2018-08-06T21:08:49.883Z,3.8
2018-08-06T21:10:49.900Z,3.7
2018-08-06T21:12:50.081Z,3.6
2018-08-06T21:14:50.250Z,3.6
2018-08-06T21:16:49.623Z,3.8
2018-08-06T21:18:49.570Z,3.8
2018-08-06T21:20:49.712Z,3.7
2018-08-06T21:22:49.821Z,3.7
2018-08-06T21:24:50.031Z,3.9
2018-08-06T21:26:50.327Z,3.6
2018-08-06T21:28:50.528Z,3.6
2018-08-06T21:30:49.603Z,3.9
2018-08-06T21:32:49.753Z,3.6
2018-08-06T21:34:50.217Z,3.6
2018-08-06T21:36:50.488Z,3.7
2018-08-06T21:38:49.537Z,3.6
2018-08-06T21:40:49.722Z,3.8
2018-08-06T21:42:49.827Z,3.8
2018-08-06T21:44:50.023Z,3.9
2018-08-06T21:46:50.472Z,3.9
2018-08-06T21:48:49.587Z,4.1
2018-08-06T21:50:49.776Z,3.6
2018-08-06T21:52:49.978Z,3.8
2018-08-06T21:54:50.129Z,3.8
2018-08-06T21:56:50.372Z,3.9
2018-08-06T21:58:50.475Z,4.0
2018-08-06T22:00:49.575Z,4.0
2018-08-06T22:02:49.606Z,4.0
2018-08-06T22:04:50.481Z,3.6
2018-08-06T22:06:49.747Z,3.6
2018-08-06T22:08:49.875Z,4.0
2018-08-06T22:10:50.012Z,3.9
2018-08-06T22:12:50.265Z,3.7
2018-08-06T22:14:50.341Z,3.5
2018-08-06T22:16:49.645Z,3.5
2018-08-06T22:18:49.695Z,3.7
2018-08-06T22:20:50.016Z,3.7
2018-08-06T22:22:50.115Z,3.7
2018-08-06T22:24:50.130Z,3.7
2018-08-06T22:26:50.358Z,3.6
2018-08-06T22:28:50.353Z,3.6
2018-08-06T22:30:50.468Z,3.7
2018-08-06T22:32:49.566Z,3.3
2018-08-06T22:34:49.980Z,3.7
2018-08-06T22:36:50.247Z,3.7
2018-08-06T22:38:50.307Z,3.3
2018-08-06T22:40:50.401Z,3.3
2018-08-06T22:42:50.385Z,3.2
2018-08-06T22:44:50.416Z,3.4
2018-08-06T22:46:49.843Z,3.4
2018-08-06T22:48:49.934Z,3.8
2018-08-06T22:50:50.037Z,3.8
2018-08-06T22:52:50.094Z,3.7
2018-08-06T22:54:50.261Z,3.7
2018-08-06T22:56:49.611Z,3.9
2018-08-06T22:58:49.567Z,3.8
2018-08-06T23:00:49.652Z,3.6
2018-08-06T23:02:49.969Z,3.6
2018-08-06T23:04:50.389Z,3.7
2018-08-06T23:06:49.759Z,3.4
2018-08-06T23:08:49.921Z,3.7
2018-08-06T23:10:49.684Z,3.6
2018-08-06T23:12:49.898Z,3.6
2018-08-06T23:14:49.816Z,3.5
2018-08-06T23:16:50.121Z,3.5
2018-08-06T23:18:50.428Z,3.5
2018-08-06T23:20:50.495Z,3.9
2018-08-06T23:22:49.608Z,3.9
2018-08-06T23:24:49.601Z,3.5
2018-08-06T23:26:49.927Z,3.4
2018-08-06T23:28:49.979Z,3.4
2018-08-06T23:30:49.986Z,3.2
2018-08-06T23:32:50.021Z,3.2
2018-08-06T23:34:50.487Z,3.5
2018-08-06T23:36:49.916Z,3.5
2018-08-06T23:38:50.007Z,3.7
2018-08-06T23:40:50.061Z,3.8
2018-08-06T23:42:50.272Z,3.8
2018-08-06T23:44:50.381Z,3.3
2018-08-06T23:46:49.597Z,3.2
2018-08-06T23:48:49.614Z,3.2
2018-08-06T23:50:49.630Z,3.4
2018-08-06T23:52:49.899Z,3.4
2018-08-06T23:54:49.901Z,3.3
2018-08-06T23:56:50.132Z,3.4
2018-08-06T23:58:50.205Z,3.4
